Wednesday, November 14, 2018, 7:34 AM GMT
Back to Local

CYBC, Baie Comeau, Que.

Location: , , Canada Lat: 49.133
Local Time: 7:34 AM GMT ( 7:34 GMT) Lon: -68.2
Time Zone: GMT Elev: 68 ft

Show me the last for .
Show Coded

Time T Td Feel RH Dir Speed Gust Alt SLP Vis Weather Sky Remarks
2018-11-14 07:16 25 21 8 85 290° 18 29 29.45 29.46 5 -SN BKN021 BKN027 OVC055 None
2018-11-14 07:15 25 21 8 85 290° 17 29 29.45 29.46 5 -SN FEW015 SCT021 BKN027 OVC055 None
2018-11-14 07:06 27 23 11 86 300° 16 28 29.45 29.46 4 -SN FEW018 BKN023 OVC050 None
2018-11-14 07:01 27 23 11 86 310° 16 28 29.44 29.45 5 -SN SCT017 SCT024 SCT033 OVC050 None
2018-11-14 07:00 27 23 11 86 300° 16 26 29.44 29.45 6 -SN SCT017 SCT026 SCT033 OVC050 None
2018-11-14 06:30 28 27 21 92 290° 7 - 29.45 29.46 6 -SN SCT011 SCT016 OVC025 None
2018-11-14 06:23 28 27 21 92 300° 7 - 29.45 29.46 3 -SN FEW011 OVC025 None
2018-11-14 06:18 28 27 20 92 300° 8 - 29.45 29.46 3 -SN OVC021 None
2018-11-14 06:14 28 27 20 92 300° 9 - 29.45 29.46 2 -SN OVC019 None
2018-11-14 06:00 28 27 19 92 300° 10 - 29.46 29.46 1 -SN VV018 None
2018-11-14 05:47 28 27 20 92 290° 8 - 29.46 29.46 1 -SN OVC021 None
2018-11-14 05:36 28 28 20 100 300° 8 - 29.46 29.46 2 -SN FEW004 OVC019 None
2018-11-14 05:22 28 28 21 100 300° 7 - 29.46 29.46 1 -SN SCT004 OVC011 None
2018-11-14 05:08 30 28 23 92 270° 7 - 29.47 29.48 1 -SN BKN004 OVC013 None
2018-11-14 05:06 30 28 23 92 270° 7 - 29.47 29.48 1 -SN BKN006 OVC013 None
2018-11-14 05:00 30 28 23 92 260° 8 - 29.47 29.48 1 -SN SCT006 BKN013 OVC020 None
2018-11-14 04:21 30 28 27 92 240° 3 - 29.49 29.49 1 -SN SCT004 OVC017 None
2018-11-14 04:12 30 28 27 92 230° 3 - 29.50 29.51 1 -SN BKN004 OVC017 None
2018-11-14 04:00 30 30 - 100 190° 2 - 29.50 29.51 1 -SN BKN006 OVC009 Pressure falling rapidly
2018-11-14 03:21 30 30 27 100 130° 3 - 29.54 29.55 1 -SN OVC006 Pressure falling rapidly
2018-11-14 03:03 30 28 27 92 120° 3 - 29.56 29.57 1 -SN BKN004 OVC008 Pressure falling rapidly
2018-11-14 03:00 30 28 27 92 120° 3 - 29.57 29.57 1 -SN OVC006 Pressure falling rapidly
2018-11-14 02:56 30 28 25 92 120° 5 - 29.57 29.58 1 -SN OVC006 Pressure falling rapidly
2018-11-14 02:55 30 28 25 92 120° 5 - 29.57 29.58 1 -SN BKN004 OVC008 Pressure falling rapidly
2018-11-14 02:21 30 30 23 100 120° 8 - 29.60 29.61 1 -SN BKN006 OVC010 Pressure falling rapidly
2018-11-14 02:00 30 28 23 92 120° 8 - 29.62 29.63 1 -SN BKN004 BKN009 OVC013 Pressure falling rapidly
2018-11-14 01:00 30 28 21 92 120° 12 - 29.67 29.68 1 -SN BKN004 BKN013 OVC021 Pressure falling rapidly
2018-11-14 00:41 30 28 20 92 110° 13 - 29.69 29.70 1 -SN BKN004 BKN013 OVC023 None
2018-11-14 00:20 30 28 21 92 120° 12 - 29.70 29.71 1 -SN BKN006 OVC012 Pressure falling rapidly
2018-11-14 00:00 30 28 21 92 120° 12 - 29.73 29.73 1 -SN SCT004 OVC012 Pressure falling rapidly
2018-11-13 23:53 30 28 21 92 120° 10 - 29.73 29.74 1 -SN SCT004 OVC010 None
2018-11-13 23:40 30 28 21 92 110° 10 - 29.74 29.75 1 -SN BKN004 OVC010 Pressure falling rapidly
2018-11-13 23:14 30 28 18 92 120° 13 18 29.76 29.77 0 -SN SCT004 OVC010 Pressure falling rapidly
2018-11-13 23:00 30 28 18 92 120° 12 17 29.78 29.78 0 -SN BKN004 OVC008 Pressure falling rapidly
2018-11-13 22:30 30 28 17 92 130° 16 23 29.81 29.81 0 -SN OVC004 None
2018-11-13 22:00 30 28 16 92 80° 20 25 29.83 29.84 0 -SN OVC004 None
2018-11-13 21:00 30 28 16 92 110° 18 24 29.88 29.89 0 -SN OVC004 Pressure falling rapidly
2018-11-13 20:00 30 28 17 92 100° 16 22 29.93 29.94 0 -SN BKN004 OVC008 Pressure falling rapidly
2018-11-13 19:00 28 27 16 92 110° 18 - 29.97 29.98 0 -SN BKN004 OVC009 Pressure falling rapidly
2018-11-13 18:29 28 27 17 92 100° 16 - 30.00 30.01 0 -SN BKN004 OVC009 Pressure falling rapidly
2018-11-13 18:00 28 27 17 92 100° 16 - 30.03 30.03 0 -SN OVC006 None
2018-11-13 17:34 28 27 17 92 100° 15 - 30.04 30.05 0 -SN VV006 Pressure falling rapidly
2018-11-13 17:00 27 25 16 92 90° 12 - 30.07 30.07 1 -SN BKN005 OVC013 None
2018-11-13 16:45 27 25 16 92 100° 12 - 30.08 30.09 1 -SN BKN005 OVC011 None
2018-11-13 16:33 27 25 16 92 100° 12 - 30.08 30.09 1 -SN SCT007 OVC011 Pressure falling rapidly
2018-11-13 16:32 27 25 16 92 100° 13 - 30.09 30.09 1 -SN VV009 Pressure falling rapidly
2018-11-13 16:31 27 25 16 92 100° 13 - 30.09 30.09 1 -SN SCT006 OVC012 Pressure falling rapidly
2018-11-13 16:15 27 25 16 92 100° 12 - 30.10 30.11 1 -SN BKN008 OVC014 None
2018-11-13 16:00 27 23 16 86 110° 13 - 30.11 30.12 1 -SN BKN014 OVC025 Pressure falling rapidly
2018-11-13 15:49 27 23 16 86 120° 12 - 30.13 30.13 1 -SN BKN014 BKN025 OVC040 None
2018-11-13 15:47 27 23 16 86 120° 13 - 30.13 30.14 1 -SN FEW014 SCT019 BKN025 OVC040 None
2018-11-13 15:43 27 21 16 79 120° 13 - 30.13 30.14 2 -SN FEW014 SCT021 BKN027 OVC040 None
2018-11-13 15:38 27 21 16 79 120° 13 - 30.13 30.13 5 -SN SCT021 BKN025 BKN035 OVC043 Pressure falling rapidly
2018-11-13 15:00 27 19 15 73 110° 14 - 30.15 30.16 9 -SN BKN040 OVC048 None
2018-11-13 14:56 27 19 15 73 100° 15 - 30.15 30.16 9 -SN BKN040 OVC048 None
2018-11-13 14:00 27 19 17 73 120° 9 - 30.19 30.20 9 FEW018 BKN060 BKN081 Pressure falling rapidly
2018-11-13 13:50 27 19 17 73 120° 10 - 30.20 30.21 9 SCT018 BKN065 BKN083 None
2018-11-13 13:11 27 21 17 79 100° 9 - 30.21 30.22 9 BKN018 BKN095 None
2018-11-13 13:00 25 19 15 79 100° 9 - 30.22 30.23 9 FEW018 BKN095 Pressure falling rapidly
2018-11-13 12:00 19 18 14 92 70° 3 - 30.24 30.25 9 CLR None
2018-11-13 11:00 16 14 - 92 350° 2 - 30.25 30.26 9 FEW160 None
2018-11-13 10:00 16 14 - 92 290° 2 - 30.27 30.28 9 OVC120 None
2018-11-13 09:00 12 10 - 92 10° 2 - 30.29 30.30 9 FEW075 None
2018-11-13 08:00 12 9 - 85 340° 2 - 30.30 30.31 9 BKN170 BKN190 None

Support USWX by starting your Amazon purchase here.